createdAt,value
2023-05-21T00:00:13.355Z,20.17
2023-05-21T00:03:16.360Z,20.37
2023-05-21T00:06:21.137Z,20.66
2023-05-21T00:09:24.008Z,20.33
2023-05-21T00:12:26.809Z,20.64
2023-05-21T00:15:29.637Z,20.08
2023-05-21T00:18:34.288Z,20.17
2023-05-21T00:21:39.535Z,20.39
2023-05-21T00:24:42.380Z,20.52
2023-05-21T00:27:45.143Z,20.43
2023-05-21T00:30:47.878Z,20.08
2023-05-21T00:33:50.776Z,20.36
2023-05-21T00:36:55.643Z,20.33
2023-05-21T00:39:58.556Z,22.13
2023-05-21T00:43:01.323Z,22.82
2023-05-21T00:46:04.064Z,22.90
2023-05-21T00:49:06.881Z,22.99
2023-05-21T00:52:11.662Z,23.07
2023-05-21T00:55:14.422Z,23.14
2023-05-21T00:58:18.326Z,23.18
2023-05-21T01:01:21.189Z,23.24
2023-05-21T01:04:24.113Z,23.30
2023-05-21T01:07:28.240Z,23.31
2023-05-21T01:10:31.529Z,23.29
2023-05-21T01:13:37.950Z,23.37
2023-05-21T01:16:42.266Z,23.34
2023-05-21T01:19:45.580Z,23.43
2023-05-21T01:22:52.635Z,23.44
2023-05-21T01:25:55.389Z,23.51
2023-05-21T01:28:58.040Z,23.50
2023-05-21T01:32:04.074Z,23.54
2023-05-21T01:35:09.306Z,23.53
2023-05-21T01:38:17.558Z,23.51
2023-05-21T01:41:21.082Z,23.53
2023-05-21T01:44:25.400Z,23.52
2023-05-21T01:47:31.300Z,23.53
2023-05-21T01:50:35.303Z,23.52
2023-05-21T01:53:40.838Z,23.55
2023-05-21T01:56:43.640Z,23.56
2023-05-21T01:59:47.852Z,23.55
2023-05-21T02:02:50.950Z,23.61
2023-05-21T02:05:55.725Z,23.59
2023-05-21T02:08:59.965Z,23.57
2023-05-21T02:12:02.746Z,23.63
2023-05-21T02:15:06.101Z,23.65
2023-05-21T02:18:09.630Z,23.65
2023-05-21T02:21:12.520Z,23.60
2023-05-21T02:24:16.836Z,23.65
2023-05-21T02:27:19.606Z,23.68
2023-05-21T02:30:22.428Z,23.64
2023-05-21T02:33:26.139Z,23.72
2023-05-21T02:36:28.880Z,23.72
2023-05-21T02:39:33.030Z,23.71
2023-05-21T02:42:36.614Z,23.72
2023-05-21T02:45:39.507Z,23.74
2023-05-21T02:48:42.402Z,23.74
2023-05-21T02:51:45.168Z,23.81
2023-05-21T02:54:49.317Z,23.82
2023-05-21T02:57:52.082Z,23.78
2023-05-21T03:00:54.878Z,23.80
2023-05-21T03:03:57.664Z,23.81
2023-05-21T03:07:02.203Z,23.85
2023-05-21T03:10:06.852Z,23.90
2023-05-21T03:13:09.925Z,23.89
2023-05-21T03:16:12.953Z,23.89
2023-05-21T03:19:16.464Z,23.90
2023-05-21T03:22:20.093Z,23.89
2023-05-21T03:25:25.350Z,23.90
2023-05-21T03:28:28.193Z,23.96
2023-05-21T03:31:31.001Z,23.97
2023-05-21T03:34:35.676Z,24.00
2023-05-21T03:37:38.462Z,23.97
2023-05-21T03:40:42.557Z,24.05
2023-05-21T03:43:45.701Z,24.03
2023-05-21T03:46:48.443Z,24.10
2023-05-21T03:49:51.480Z,24.05
2023-05-21T03:52:54.253Z,24.09
2023-05-21T03:55:58.386Z,24.06
2023-05-21T03:59:01.337Z,24.10
2023-05-21T04:02:04.219Z,24.12
2023-05-21T04:05:07.558Z,24.17
2023-05-21T04:08:10.391Z,24.18
2023-05-21T04:11:14.422Z,24.15
2023-05-21T04:14:17.405Z,24.24
2023-05-21T04:17:21.188Z,24.25
2023-05-21T04:20:24.032Z,24.28
2023-05-21T04:23:26.837Z,24.29
2023-05-21T04:26:34.376Z,23.31
2023-05-21T04:29:37.834Z,24.09
2023-05-21T04:32:40.619Z,24.25
2023-05-21T04:35:44.646Z,24.35
2023-05-21T04:38:48.790Z,24.32
2023-05-21T04:41:54.925Z,24.37
2023-05-21T04:44:59.559Z,24.36
2023-05-21T04:48:03.032Z,24.37
2023-05-21T04:51:06.961Z,24.38
2023-05-21T04:54:09.732Z,24.38
2023-05-21T04:57:13.857Z,24.41
2023-05-21T05:00:17.522Z,24.43
2023-05-21T05:03:20.342Z,24.50
2023-05-21T05:06:25.820Z,24.49
2023-05-21T05:09:30.222Z,24.49
2023-05-21T05:12:34.369Z,24.51
2023-05-21T05:15:37.387Z,24.55
2023-05-21T05:18:40.275Z,24.55
2023-05-21T05:21:43.024Z,24.52
2023-05-21T05:24:45.818Z,24.56
2023-05-21T05:27:49.962Z,24.56
2023-05-21T05:30:52.772Z,24.63
2023-05-21T05:33:59.440Z,24.64
2023-05-21T05:37:03.027Z,24.65
2023-05-21T05:40:06.352Z,24.70
2023-05-21T05:43:10.466Z,24.70
2023-05-21T05:46:13.214Z,24.69
2023-05-21T05:49:16.037Z,24.81
2023-05-21T05:52:18.775Z,24.82
2023-05-21T05:55:22.126Z,24.83
2023-05-21T05:58:26.416Z,24.80
2023-05-21T06:01:29.288Z,24.82
2023-05-21T06:04:32.075Z,24.88
2023-05-21T06:07:34.803Z,24.93
2023-05-21T06:10:37.557Z,24.90
2023-05-21T06:13:41.675Z,24.88
2023-05-21T06:16:44.419Z,24.92
2023-05-21T06:19:47.130Z,24.89
2023-05-21T06:22:49.882Z,24.96
2023-05-21T06:25:52.596Z,25.00
2023-05-21T06:28:56.759Z,24.99
2023-05-21T06:31:59.469Z,25.00
2023-05-21T06:35:02.272Z,25.01
2023-05-21T06:38:05.042Z,25.03
2023-05-21T06:41:07.759Z,25.08
2023-05-21T06:44:11.762Z,25.10
2023-05-21T06:47:14.457Z,25.09
2023-05-21T06:50:17.435Z,25.10
2023-05-21T06:53:20.137Z,25.11
2023-05-21T06:56:22.970Z,25.17
2023-05-21T06:59:27.101Z,25.10
2023-05-21T07:02:30.084Z,25.16
2023-05-21T07:05:32.922Z,25.19
2023-05-21T07:08:35.707Z,25.21
2023-05-21T07:11:38.962Z,25.18
2023-05-21T07:14:43.041Z,25.17
2023-05-21T07:17:45.965Z,25.16
2023-05-21T07:20:48.794Z,25.20
2023-05-21T07:23:51.546Z,25.20
2023-05-21T07:26:54.432Z,25.21
2023-05-21T07:29:58.607Z,25.22
2023-05-21T07:33:01.424Z,25.26
2023-05-21T07:36:04.252Z,25.22
2023-05-21T07:39:06.919Z,25.24
2023-05-21T07:42:09.643Z,25.22
2023-05-21T07:45:13.804Z,25.28
2023-05-21T07:48:16.580Z,25.24
2023-05-21T07:51:19.465Z,25.26
2023-05-21T07:54:22.294Z,25.28
2023-05-21T07:57:25.032Z,25.25
2023-05-21T08:00:29.186Z,25.23
2023-05-21T08:03:32.159Z,25.21
2023-05-21T08:06:35.090Z,25.21
2023-05-21T08:09:37.971Z,25.30
2023-05-21T08:12:40.885Z,25.28
2023-05-21T08:15:44.996Z,25.23
2023-05-21T08:18:47.767Z,25.28
2023-05-21T08:21:52.819Z,25.35
2023-05-21T08:24:55.952Z,25.34
2023-05-21T08:27:58.707Z,25.31
2023-05-21T08:31:03.126Z,25.32
2023-05-21T08:34:05.837Z,25.32
2023-05-21T08:37:08.611Z,25.33
2023-05-21T08:40:12.465Z,25.28
2023-05-21T08:43:16.526Z,25.34
2023-05-21T08:46:22.333Z,25.38
2023-05-21T08:49:27.527Z,25.32
2023-05-21T08:52:30.327Z,25.39
2023-05-21T08:55:33.777Z,25.39
2023-05-21T08:58:37.552Z,25.40
2023-05-21T09:01:43.688Z,24.91
2023-05-21T09:04:49.247Z,24.68
2023-05-21T09:07:56.790Z,24.73
2023-05-21T09:10:59.579Z,24.49
2023-05-21T09:14:02.472Z,24.26
2023-05-21T09:17:06.681Z,24.52
2023-05-21T09:20:12.173Z,24.28
2023-05-21T09:23:18.280Z,24.38
2023-05-21T09:26:22.580Z,24.29
2023-05-21T09:29:26.169Z,24.32
2023-05-21T09:32:30.303Z,23.93
2023-05-21T09:35:36.220Z,23.92
2023-05-21T09:38:40.316Z,24.12
2023-05-21T09:41:43.356Z,23.78
2023-05-21T09:44:46.077Z,23.77
2023-05-21T09:47:50.593Z,23.44
2023-05-21T09:50:53.418Z,23.50
2023-05-21T09:53:58.010Z,23.22
2023-05-21T09:57:01.556Z,23.51
2023-05-21T10:00:06.562Z,22.75
2023-05-21T10:03:11.060Z,23.27
2023-05-21T10:06:15.654Z,22.94
2023-05-21T10:09:20.969Z,23.03
2023-05-21T10:12:24.619Z,22.69
2023-05-21T10:15:29.298Z,22.52
2023-05-21T10:18:34.840Z,22.93
2023-05-21T10:21:40.330Z,22.81
2023-05-21T10:24:44.033Z,22.56
2023-05-21T10:27:47.182Z,22.83
2023-05-21T10:30:50.049Z,22.73
2023-05-21T10:33:54.392Z,23.01
2023-05-21T10:36:58.442Z,23.03
2023-05-21T10:40:01.518Z,22.46
2023-05-21T10:43:23.772Z,22.34
2023-05-21T10:46:37.677Z,22.41
2023-05-21T10:49:49.218Z,21.80
2023-05-21T10:52:57.262Z,22.00
2023-05-21T10:56:06.734Z,21.76
2023-05-21T10:59:15.331Z,21.50
2023-05-21T11:02:19.824Z,22.30
2023-05-21T11:05:39.280Z,22.08
2023-05-21T11:08:48.613Z,22.01
2023-05-21T11:11:51.613Z,22.25
2023-05-21T11:14:57.760Z,22.12
2023-05-21T11:18:00.615Z,22.12
2023-05-21T11:21:06.797Z,22.07
2023-05-21T11:24:11.133Z,22.09
2023-05-21T11:27:14.012Z,22.20
2023-05-21T11:30:17.460Z,21.84
2023-05-21T11:33:20.389Z,21.92
2023-05-21T11:36:24.500Z,21.95
2023-05-21T11:39:27.419Z,21.87
2023-05-21T11:42:33.968Z,21.86
2023-05-21T11:45:41.076Z,21.97
2023-05-21T11:48:45.467Z,22.07
2023-05-21T11:51:49.850Z,22.35
2023-05-21T11:54:55.304Z,22.13
2023-05-21T11:57:59.544Z,22.23
2023-05-21T12:01:02.270Z,22.24
2023-05-21T12:04:05.424Z,22.32
2023-05-21T12:07:10.130Z,22.00
2023-05-21T12:10:13.566Z,22.05
2023-05-21T12:13:16.292Z,21.92
2023-05-21T12:16:19.118Z,22.21
2023-05-21T12:19:22.141Z,22.20
2023-05-21T12:22:28.118Z,22.22
2023-05-21T12:25:32.109Z,22.10
2023-05-21T12:28:34.915Z,22.01
2023-05-21T12:31:48.126Z,22.17
2023-05-21T12:34:51.478Z,22.28
2023-05-21T12:37:55.859Z,22.02
2023-05-21T12:41:04.032Z,22.24
2023-05-21T12:44:08.805Z,22.09
2023-05-21T12:47:11.867Z,22.09
2023-05-21T12:50:14.678Z,22.08
2023-05-21T12:53:18.709Z,22.13
2023-05-21T12:56:21.819Z,22.09
2023-05-21T12:59:24.582Z,22.28
2023-05-21T13:02:28.091Z,22.05
2023-05-21T13:05:32.134Z,21.92
2023-05-21T13:08:36.355Z,21.95
2023-05-21T13:11:39.289Z,22.10
2023-05-21T13:14:42.021Z,21.72
2023-05-21T13:17:44.867Z,21.94
2023-05-21T13:20:47.716Z,22.00
2023-05-21T13:23:51.824Z,21.74
2023-05-21T13:26:54.602Z,21.72
2023-05-21T13:29:57.399Z,21.89
2023-05-21T13:33:00.398Z,21.78
2023-05-21T13:36:05.512Z,21.77
2023-05-21T13:39:09.652Z,21.87
2023-05-21T13:42:12.457Z,21.65
2023-05-21T13:45:16.295Z,21.86
2023-05-21T13:48:21.720Z,21.73
2023-05-21T13:51:38.042Z,21.82
2023-05-21T13:54:43.352Z,21.77
2023-05-21T13:57:46.941Z,21.54
2023-05-21T14:00:49.767Z,21.54
2023-05-21T14:03:52.508Z,21.55
2023-05-21T14:06:55.594Z,21.39
2023-05-21T14:09:59.777Z,21.75
2023-05-21T14:13:11.900Z,21.67
2023-05-21T14:16:23.102Z,21.67
2023-05-21T14:19:26.004Z,21.79
2023-05-21T14:22:28.734Z,21.98
2023-05-21T14:25:32.830Z,21.81
2023-05-21T14:28:36.624Z,21.74
2023-05-21T14:31:39.900Z,21.74
2023-05-21T14:34:42.677Z,21.81
2023-05-21T14:37:45.374Z,21.53
2023-05-21T14:40:49.446Z,22.08
2023-05-21T14:43:52.139Z,21.81
2023-05-21T14:46:54.860Z,21.81
2023-05-21T14:49:57.555Z,22.10
2023-05-21T14:53:00.317Z,22.12
2023-05-21T14:56:04.520Z,22.53
2023-05-21T14:59:07.220Z,22.12
2023-05-21T15:02:09.925Z,21.95
2023-05-21T15:05:12.761Z,22.33
2023-05-21T15:08:15.539Z,22.43
2023-05-21T15:11:19.623Z,22.24
2023-05-21T15:14:22.400Z,22.40
2023-05-21T15:17:25.140Z,22.34
2023-05-21T15:20:27.861Z,22.28
2023-05-21T15:23:30.580Z,22.09
2023-05-21T15:26:34.705Z,22.02
2023-05-21T15:29:37.509Z,22.07
2023-05-21T15:32:40.681Z,22.23
2023-05-21T15:35:43.685Z,22.06
2023-05-21T15:38:46.938Z,22.09
2023-05-21T15:41:52.160Z,22.00
2023-05-21T15:44:54.881Z,21.85
2023-05-21T15:47:57.675Z,21.63
2023-05-21T15:51:00.465Z,21.51
2023-05-21T15:54:05.985Z,21.50
2023-05-21T15:57:10.037Z,21.56
2023-05-21T16:00:13.606Z,21.48
2023-05-21T16:03:16.594Z,21.39
2023-05-21T16:06:19.895Z,21.34
2023-05-21T16:09:22.569Z,21.33
2023-05-21T16:12:27.398Z,21.34
2023-05-21T16:15:32.477Z,21.19
2023-05-21T16:18:35.253Z,21.05
2023-05-21T16:21:37.949Z,21.13
2023-05-21T16:24:40.676Z,21.11
2023-05-21T16:27:44.797Z,20.90
2023-05-21T16:30:47.661Z,21.11
2023-05-21T16:33:50.555Z,21.14
2023-05-21T16:36:53.406Z,20.92
2023-05-21T16:39:56.124Z,20.91
2023-05-21T16:43:02.045Z,20.97
2023-05-21T16:46:05.141Z,21.05
2023-05-21T16:49:07.898Z,20.91
2023-05-21T16:52:10.845Z,20.80
2023-05-21T16:55:17.256Z,20.78
2023-05-21T16:58:22.402Z,20.94
2023-05-21T17:01:25.725Z,21.04
2023-05-21T17:04:28.748Z,20.86
2023-05-21T17:07:32.547Z,20.76
2023-05-21T17:10:35.788Z,20.83
2023-05-21T17:13:41.171Z,20.95
2023-05-21T17:16:44.296Z,20.97
2023-05-21T17:19:47.078Z,20.77
2023-05-21T17:22:49.860Z,20.69
2023-05-21T17:25:53.127Z,20.78
2023-05-21T17:28:57.342Z,20.64
2023-05-21T17:32:00.352Z,20.34
2023-05-21T17:35:03.250Z,20.34
2023-05-21T17:38:05.976Z,20.33
2023-05-21T17:41:08.748Z,20.46
2023-05-21T17:44:13.677Z,20.59
2023-05-21T17:47:16.417Z,20.44
2023-05-21T17:50:19.253Z,20.67
2023-05-21T17:53:22.829Z,20.29
2023-05-21T17:56:26.657Z,20.22
2023-05-21T17:59:30.866Z,19.94
2023-05-21T18:02:33.667Z,19.90
2023-05-21T18:05:36.880Z,20.04
2023-05-21T18:08:39.862Z,19.98
2023-05-21T18:11:43.477Z,19.66
2023-05-21T18:14:47.616Z,19.70
2023-05-21T18:17:50.421Z,19.95
2023-05-21T18:20:54.068Z,19.76
2023-05-21T18:23:56.787Z,19.87
2023-05-21T18:26:59.648Z,19.88
2023-05-21T18:30:06.400Z,19.98
2023-05-21T18:33:11.154Z,19.95
2023-05-21T18:36:13.959Z,19.97
2023-05-21T18:39:16.682Z,20.23
2023-05-21T18:42:27.013Z,19.94
2023-05-21T18:45:31.267Z,20.03
2023-05-21T18:48:34.113Z,19.77
2023-05-21T18:51:36.936Z,19.64
2023-05-21T18:54:39.776Z,19.73
2023-05-21T18:57:42.526Z,19.80
2023-05-21T19:00:46.872Z,20.03
2023-05-21T19:03:49.634Z,20.05
2023-05-21T19:06:52.371Z,19.88
2023-05-21T19:09:56.080Z,20.05
2023-05-21T19:12:58.810Z,20.09
2023-05-21T19:16:03.274Z,20.24
2023-05-21T19:19:06.081Z,20.10
2023-05-21T19:22:08.955Z,20.01
2023-05-21T19:25:11.977Z,20.13
2023-05-21T19:28:14.765Z,19.93
2023-05-21T19:31:18.943Z,19.54
2023-05-21T19:34:22.949Z,19.74
2023-05-21T19:37:26.199Z,19.89
2023-05-21T19:40:29.036Z,19.80
2023-05-21T19:43:32.801Z,19.67
2023-05-21T19:46:37.072Z,19.93
2023-05-21T19:49:40.147Z,19.97
2023-05-21T19:52:42.968Z,20.12
2023-05-21T19:55:46.818Z,20.09
2023-05-21T19:58:49.644Z,20.04
2023-05-21T20:01:53.803Z,19.86
2023-05-21T20:04:57.859Z,19.93
2023-05-21T20:08:00.634Z,20.35
2023-05-21T20:11:04.588Z,19.93
2023-05-21T20:14:07.373Z,20.26
2023-05-21T20:17:11.935Z,19.92
2023-05-21T20:20:14.835Z,19.94
2023-05-21T20:23:17.779Z,19.68
2023-05-21T20:26:21.839Z,19.44
2023-05-21T20:29:24.606Z,19.66
2023-05-21T20:32:28.681Z,19.90
2023-05-21T20:35:31.568Z,19.69
2023-05-21T20:38:36.947Z,19.47
2023-05-21T20:41:39.689Z,19.89
2023-05-21T20:44:45.105Z,19.71
2023-05-21T20:47:50.174Z,19.85
2023-05-21T20:50:53.037Z,19.85
2023-05-21T20:53:55.768Z,19.95
2023-05-21T20:57:00.007Z,19.97
2023-05-21T21:00:02.751Z,19.78
2023-05-21T21:03:10.249Z,19.98
2023-05-21T21:06:13.150Z,19.78
2023-05-21T21:09:17.651Z,19.95
2023-05-21T21:12:25.150Z,19.47
2023-05-21T21:15:29.047Z,19.46
2023-05-21T21:18:33.121Z,19.75
2023-05-21T21:21:36.024Z,19.74
2023-05-21T21:24:38.784Z,19.68
2023-05-21T21:27:42.515Z,19.64
2023-05-21T21:30:45.864Z,19.65
2023-05-21T21:33:50.110Z,19.91
2023-05-21T21:36:52.859Z,20.07
2023-05-21T21:39:55.763Z,19.83
2023-05-21T21:42:58.547Z,20.03
2023-05-21T21:46:01.460Z,19.82
2023-05-21T21:49:05.742Z,19.61
2023-05-21T21:52:08.582Z,19.49
2023-05-21T21:55:12.619Z,19.53
2023-05-21T21:58:15.383Z,19.74
2023-05-21T22:01:18.168Z,19.42
2023-05-21T22:04:23.350Z,19.52
2023-05-21T22:07:26.171Z,19.81
2023-05-21T22:10:28.983Z,19.56
2023-05-21T22:13:31.702Z,19.47
2023-05-21T22:16:34.465Z,19.60
2023-05-21T22:19:38.576Z,19.83
2023-05-21T22:22:41.320Z,19.77
2023-05-21T22:25:44.119Z,19.73
2023-05-21T22:28:46.867Z,19.80
2023-05-21T22:31:50.643Z,19.46
2023-05-21T22:34:54.748Z,19.86
2023-05-21T22:37:58.096Z,19.90
2023-05-21T22:41:01.853Z,20.27
2023-05-21T22:44:04.684Z,19.73
2023-05-21T22:47:09.475Z,19.94
2023-05-21T22:50:13.944Z,21.66
2023-05-21T22:53:17.148Z,21.95
2023-05-21T22:56:19.884Z,21.99
2023-05-21T22:59:22.674Z,22.04
2023-05-21T23:02:25.541Z,22.13
2023-05-21T23:05:29.743Z,22.16
2023-05-21T23:08:32.527Z,22.18
2023-05-21T23:11:35.493Z,22.24
2023-05-21T23:14:38.201Z,22.23
2023-05-21T23:17:41.153Z,22.27
2023-05-21T23:20:45.560Z,22.27
2023-05-21T23:23:48.350Z,22.27
2023-05-21T23:26:51.104Z,22.29
2023-05-21T23:29:53.916Z,22.28
2023-05-21T23:32:57.010Z,22.34
2023-05-21T23:36:01.333Z,22.30
2023-05-21T23:39:04.382Z,22.31
2023-05-21T23:42:07.395Z,22.30
2023-05-21T23:45:10.411Z,22.36
2023-05-21T23:48:13.242Z,22.35
2023-05-21T23:51:19.275Z,22.36
2023-05-21T23:54:22.042Z,22.33
2023-05-21T23:57:24.787Z,22.30
